sensor_id;sensor_type;location;lat;lon;timestamp;temperature;humidity
67157;SHT31;54086;50.126;8.710;2023-11-21T00:00:00;9.50;97.60
67157;SHT31;54086;50.126;8.710;2023-11-21T00:02:26;9.42;97.81
67157;SHT31;54086;50.126;8.710;2023-11-21T00:04:52;9.47;97.75
67157;SHT31;54086;50.126;8.710;2023-11-21T00:07:17;9.50;97.79
67157;SHT31;54086;50.126;8.710;2023-11-21T00:09:43;9.46;97.72
67157;SHT31;54086;50.126;8.710;2023-11-21T00:12:08;9.47;97.73
67157;SHT31;54086;50.126;8.710;2023-11-21T00:14:37;9.46;97.67
67157;SHT31;54086;50.126;8.710;2023-11-21T00:17:03;9.49;97.55
67157;SHT31;54086;50.126;8.710;2023-11-21T00:19:29;9.54;97.57
67157;SHT31;54086;50.126;8.710;2023-11-21T00:21:54;9.57;97.48
67157;SHT31;54086;50.126;8.710;2023-11-21T00:24:19;9.49;97.56
67157;SHT31;54086;50.126;8.710;2023-11-21T00:26:45;9.50;97.54
67157;SHT31;54086;50.126;8.710;2023-11-21T00:29:10;9.51;97.56
67157;SHT31;54086;50.126;8.710;2023-11-21T00:31:36;9.46;97.57
67157;SHT31;54086;50.126;8.710;2023-11-21T00:34:05;9.44;97.73
67157;SHT31;54086;50.126;8.710;2023-11-21T00:36:31;9.42;97.79
67157;SHT31;54086;50.126;8.710;2023-11-21T00:38:57;9.38;97.92
67157;SHT31;54086;50.126;8.710;2023-11-21T00:41:23;9.44;97.80
67157;SHT31;54086;50.126;8.710;2023-11-21T00:43:48;9.42;97.92
67157;SHT31;54086;50.126;8.710;2023-11-21T00:46:13;9.44;97.85
67157;SHT31;54086;50.126;8.710;2023-11-21T00:48:39;9.51;97.87
67157;SHT31;54086;50.126;8.710;2023-11-21T00:51:04;9.46;98.10
67157;SHT31;54086;50.126;8.710;2023-11-21T00:53:31;9.36;98.08
67157;SHT31;54086;50.126;8.710;2023-11-21T00:55:57;9.40;98.23
67157;SHT31;54086;50.126;8.710;2023-11-21T00:58:25;9.49;98.23
67157;SHT31;54086;50.126;8.710;2023-11-21T01:00:51;9.40;98.31
67157;SHT31;54086;50.126;8.710;2023-11-21T01:03:16;9.38;98.48
67157;SHT31;54086;50.126;8.710;2023-11-21T01:05:42;9.35;98.57
67157;SHT31;54086;50.126;8.710;2023-11-21T01:08:07;9.33;98.57
67157;SHT31;54086;50.126;8.710;2023-11-21T01:10:33;9.36;98.64
67157;SHT31;54086;50.126;8.710;2023-11-21T01:12:59;9.35;98.58
67157;SHT31;54086;50.126;8.710;2023-11-21T01:15:25;9.35;98.53
67157;SHT31;54086;50.126;8.710;2023-11-21T01:17:51;9.38;98.56
67157;SHT31;54086;50.126;8.710;2023-11-21T01:20:17;9.39;98.47
67157;SHT31;54086;50.126;8.710;2023-11-21T01:22:43;9.35;98.41
67157;SHT31;54086;50.126;8.710;2023-11-21T01:25:08;9.38;98.52
67157;SHT31;54086;50.126;8.710;2023-11-21T01:27:34;9.42;98.45
67157;SHT31;54086;50.126;8.710;2023-11-21T01:30:01;9.46;98.59
67157;SHT31;54086;50.126;8.710;2023-11-21T01:32:27;9.47;98.77
67157;SHT31;54086;50.126;8.710;2023-11-21T01:34:54;9.43;98.79
67157;SHT31;54086;50.126;8.710;2023-11-21T01:37:20;9.40;98.92
67157;SHT31;54086;50.126;8.710;2023-11-21T01:39:47;9.43;98.76
67157;SHT31;54086;50.126;8.710;2023-11-21T01:42:12;9.42;98.82
67157;SHT31;54086;50.126;8.710;2023-11-21T01:44:38;9.49;98.63
67157;SHT31;54086;50.126;8.710;2023-11-21T01:47:05;9.42;98.87
67157;SHT31;54086;50.126;8.710;2023-11-21T01:49:32;9.36;98.93
67157;SHT31;54086;50.126;8.710;2023-11-21T01:51:58;9.30;98.73
67157;SHT31;54086;50.126;8.710;2023-11-21T01:54:24;9.33;98.97
67157;SHT31;54086;50.126;8.710;2023-11-21T01:56:50;9.23;99.17
67157;SHT31;54086;50.126;8.710;2023-11-21T01:59:18;9.26;99.45
67157;SHT31;54086;50.126;8.710;2023-11-21T02:01:44;9.29;99.54
67157;SHT31;54086;50.126;8.710;2023-11-21T02:04:12;9.28;99.38
67157;SHT31;54086;50.126;8.710;2023-11-21T02:06:37;9.30;99.34
67157;SHT31;54086;50.126;8.710;2023-11-21T02:09:04;9.36;99.35
67157;SHT31;54086;50.126;8.710;2023-11-21T02:11:30;9.30;99.27
67157;SHT31;54086;50.126;8.710;2023-11-21T02:13:56;9.22;99.35
67157;SHT31;54086;50.126;8.710;2023-11-21T02:16:24;9.19;99.47
67157;SHT31;54086;50.126;8.710;2023-11-21T02:18:50;9.12;99.74
67157;SHT31;54086;50.126;8.710;2023-11-21T02:21:16;9.18;99.67
67157;SHT31;54086;50.126;8.710;2023-11-21T02:23:41;9.22;99.58
67157;SHT31;54086;50.126;8.710;2023-11-21T02:26:10;9.19;99.45
67157;SHT31;54086;50.126;8.710;2023-11-21T02:28:36;9.19;99.50
67157;SHT31;54086;50.126;8.710;2023-11-21T02:31:02;9.22;99.54
67157;SHT31;54086;50.126;8.710;2023-11-21T02:33:29;9.25;99.53
67157;SHT31;54086;50.126;8.710;2023-11-21T02:35:55;9.18;99.44
67157;SHT31;54086;50.126;8.710;2023-11-21T02:38:21;9.15;99.63
67157;SHT31;54086;50.126;8.710;2023-11-21T02:40:46;9.19;99.57
67157;SHT31;54086;50.126;8.710;2023-11-21T02:43:12;9.16;99.55
67157;SHT31;54086;50.126;8.710;2023-11-21T02:45:37;9.15;99.52
67157;SHT31;54086;50.126;8.710;2023-11-21T02:48:03;9.20;99.37
67157;SHT31;54086;50.126;8.710;2023-11-21T02:50:29;9.26;99.44
67157;SHT31;54086;50.126;8.710;2023-11-21T02:52:55;9.20;99.57
67157;SHT31;54086;50.126;8.710;2023-11-21T02:55:22;9.19;99.47
67157;SHT31;54086;50.126;8.710;2023-11-21T02:57:50;9.16;99.41
67157;SHT31;54086;50.126;8.710;2023-11-21T03:00:16;9.20;99.41
67157;SHT31;54086;50.126;8.710;2023-11-21T03:02:42;9.18;99.31
67157;SHT31;54086;50.126;8.710;2023-11-21T03:05:09;9.11;99.53
67157;SHT31;54086;50.126;8.710;2023-11-21T03:07:36;9.20;99.36
67157;SHT31;54086;50.126;8.710;2023-11-21T03:10:02;9.18;99.33
67157;SHT31;54086;50.126;8.710;2023-11-21T03:12:29;9.19;99.41
67157;SHT31;54086;50.126;8.710;2023-11-21T03:14:54;9.14;99.47
67157;SHT31;54086;50.126;8.710;2023-11-21T03:17:20;9.20;99.43
67157;SHT31;54086;50.126;8.710;2023-11-21T03:19:46;9.26;99.33
67157;SHT31;54086;50.126;8.710;2023-11-21T03:22:11;9.23;99.28
67157;SHT31;54086;50.126;8.710;2023-11-21T03:24:37;9.25;99.33
67157;SHT31;54086;50.126;8.710;2023-11-21T03:27:04;9.19;99.25
67157;SHT31;54086;50.126;8.710;2023-11-21T03:29:29;9.18;99.32
67157;SHT31;54086;50.126;8.710;2023-11-21T03:31:55;9.23;99.15
67157;SHT31;54086;50.126;8.710;2023-11-21T03:34:27;9.19;99.13
67157;SHT31;54086;50.126;8.710;2023-11-21T03:36:53;9.18;99.21
67157;SHT31;54086;50.126;8.710;2023-11-21T03:39:19;9.25;99.21
67157;SHT31;54086;50.126;8.710;2023-11-21T03:41:45;9.18;99.11
67157;SHT31;54086;50.126;8.710;2023-11-21T03:44:10;9.19;99.29
67157;SHT31;54086;50.126;8.710;2023-11-21T03:46:36;9.14;99.38
67157;SHT31;54086;50.126;8.710;2023-11-21T03:49:01;9.14;99.20
67157;SHT31;54086;50.126;8.710;2023-11-21T03:51:27;9.12;99.08
67157;SHT31;54086;50.126;8.710;2023-11-21T03:53:52;9.04;99.33
67157;SHT31;54086;50.126;8.710;2023-11-21T03:56:18;9.09;99.20
67157;SHT31;54086;50.126;8.710;2023-11-21T03:58:44;9.07;99.18
67157;SHT31;54086;50.126;8.710;2023-11-21T04:01:09;9.04;99.14
67157;SHT31;54086;50.126;8.710;2023-11-21T04:03:34;9.05;99.32
67157;SHT31;54086;50.126;8.710;2023-11-21T04:06:01;8.98;99.29
67157;SHT31;54086;50.126;8.710;2023-11-21T04:08:26;9.07;99.09
67157;SHT31;54086;50.126;8.710;2023-11-21T04:10:51;9.04;99.11
67157;SHT31;54086;50.126;8.710;2023-11-21T04:13:19;9.01;99.21
67157;SHT31;54086;50.126;8.710;2023-11-21T04:15:44;9.04;99.09
67157;SHT31;54086;50.126;8.710;2023-11-21T04:18:09;9.11;99.01
67157;SHT31;54086;50.126;8.710;2023-11-21T04:20:35;9.11;99.01
67157;SHT31;54086;50.126;8.710;2023-11-21T04:23:00;9.07;99.14
67157;SHT31;54086;50.126;8.710;2023-11-21T04:25:26;9.11;99.11
67157;SHT31;54086;50.126;8.710;2023-11-21T04:27:52;9.14;98.95
67157;SHT31;54086;50.126;8.710;2023-11-21T04:30:18;9.07;99.02
67157;SHT31;54086;50.126;8.710;2023-11-21T04:32:43;9.11;99.01
67157;SHT31;54086;50.126;8.710;2023-11-21T04:35:09;9.14;98.90
67157;SHT31;54086;50.126;8.710;2023-11-21T04:37:34;9.11;98.98
67157;SHT31;54086;50.126;8.710;2023-11-21T04:40:00;9.15;99.00
67157;SHT31;54086;50.126;8.710;2023-11-21T04:42:25;9.08;99.03
67157;SHT31;54086;50.126;8.710;2023-11-21T04:44:51;9.07;99.09
67157;SHT31;54086;50.126;8.710;2023-11-21T04:47:18;9.18;99.06
67157;SHT31;54086;50.126;8.710;2023-11-21T04:49:46;9.16;98.95
67157;SHT31;54086;50.126;8.710;2023-11-21T04:52:12;9.16;99.16
67157;SHT31;54086;50.126;8.710;2023-11-21T04:54:37;9.14;98.92
67157;SHT31;54086;50.126;8.710;2023-11-21T04:57:05;9.18;98.84
67157;SHT31;54086;50.126;8.710;2023-11-21T04:59:32;9.19;99.00
67157;SHT31;54086;50.126;8.710;2023-11-21T05:01:58;9.22;98.75
67157;SHT31;54086;50.126;8.710;2023-11-21T05:04:25;9.20;98.88
67157;SHT31;54086;50.126;8.710;2023-11-21T05:06:50;9.18;98.99
67157;SHT31;54086;50.126;8.710;2023-11-21T05:09:16;9.16;99.05
67157;SHT31;54086;50.126;8.710;2023-11-21T05:11:41;9.20;99.08
67157;SHT31;54086;50.126;8.710;2023-11-21T05:14:07;9.23;98.79
67157;SHT31;54086;50.126;8.710;2023-11-21T05:16:32;9.25;99.02
67157;SHT31;54086;50.126;8.710;2023-11-21T05:18:58;9.23;99.09
67157;SHT31;54086;50.126;8.710;2023-11-21T05:21:27;9.35;98.82
67157;SHT31;54086;50.126;8.710;2023-11-21T05:23:52;9.29;98.67
67157;SHT31;54086;50.126;8.710;2023-11-21T05:26:18;9.33;98.68
67157;SHT31;54086;50.126;8.710;2023-11-21T05:28:43;9.39;98.62
67157;SHT31;54086;50.126;8.710;2023-11-21T05:31:08;9.40;98.65
67157;SHT31;54086;50.126;8.710;2023-11-21T05:33:35;9.46;98.62
67157;SHT31;54086;50.126;8.710;2023-11-21T05:36:01;9.35;98.67
67157;SHT31;54086;50.126;8.710;2023-11-21T05:38:27;9.36;98.68
67157;SHT31;54086;50.126;8.710;2023-11-21T05:40:52;9.32;98.63
67157;SHT31;54086;50.126;8.710;2023-11-21T05:43:17;9.32;98.78
67157;SHT31;54086;50.126;8.710;2023-11-21T05:45:43;9.38;98.63
67157;SHT31;54086;50.126;8.710;2023-11-21T05:48:08;9.25;98.66
67157;SHT31;54086;50.126;8.710;2023-11-21T05:50:34;9.43;98.67
67157;SHT31;54086;50.126;8.710;2023-11-21T05:52:59;9.40;98.57
67157;SHT31;54086;50.126;8.710;2023-11-21T05:55:25;9.46;98.61
67157;SHT31;54086;50.126;8.710;2023-11-21T05:57:51;9.39;98.34
67157;SHT31;54086;50.126;8.710;2023-11-21T06:00:16;9.42;98.55
67157;SHT31;54086;50.126;8.710;2023-11-21T06:02:54;9.42;98.57
67157;SHT31;54086;50.126;8.710;2023-11-21T06:05:23;9.49;98.46
67157;SHT31;54086;50.126;8.710;2023-11-21T06:07:52;9.47;98.67
67157;SHT31;54086;50.126;8.710;2023-11-21T06:10:20;9.46;98.35
67157;SHT31;54086;50.126;8.710;2023-11-21T06:12:45;9.60;98.54
67157;SHT31;54086;50.126;8.710;2023-11-21T06:15:11;9.53;98.45
67157;SHT31;54086;50.126;8.710;2023-11-21T06:17:41;9.44;98.34
67157;SHT31;54086;50.126;8.710;2023-11-21T06:20:08;9.51;98.46
67157;SHT31;54086;50.126;8.710;2023-11-21T06:22:40;9.47;98.59
67157;SHT31;54086;50.126;8.710;2023-11-21T06:25:06;9.50;98.23
67157;SHT31;54086;50.126;8.710;2023-11-21T06:27:34;9.56;98.29
67157;SHT31;54086;50.126;8.710;2023-11-21T06:30:00;9.61;98.12
67157;SHT31;54086;50.126;8.710;2023-11-21T06:32:25;9.56;97.98
67157;SHT31;54086;50.126;8.710;2023-11-21T06:34:51;9.44;98.25
67157;SHT31;54086;50.126;8.710;2023-11-21T06:37:19;9.51;98.21
67157;SHT31;54086;50.126;8.710;2023-11-21T06:39:46;9.51;98.37
67157;SHT31;54086;50.126;8.710;2023-11-21T06:42:11;9.57;98.23
67157;SHT31;54086;50.126;8.710;2023-11-21T06:44:37;9.51;97.92
67157;SHT31;54086;50.126;8.710;2023-11-21T06:47:03;9.51;97.91
67157;SHT31;54086;50.126;8.710;2023-11-21T06:49:28;9.49;97.54
67157;SHT31;54086;50.126;8.710;2023-11-21T06:51:54;9.38;97.70
67157;SHT31;54086;50.126;8.710;2023-11-21T06:54:20;9.39;97.63
67157;SHT31;54086;50.126;8.710;2023-11-21T06:56:46;9.40;97.55
67157;SHT31;54086;50.126;8.710;2023-11-21T06:59:12;9.39;97.57
67157;SHT31;54086;50.126;8.710;2023-11-21T07:01:38;9.39;97.72
67157;SHT31;54086;50.126;8.710;2023-11-21T07:04:06;9.39;97.71
67157;SHT31;54086;50.126;8.710;2023-11-21T07:06:33;9.42;97.64
67157;SHT31;54086;50.126;8.710;2023-11-21T07:08:58;9.43;97.49
67157;SHT31;54086;50.126;8.710;2023-11-21T07:11:24;9.44;97.32
67157;SHT31;54086;50.126;8.710;2023-11-21T07:13:50;9.43;97.53
67157;SHT31;54086;50.126;8.710;2023-11-21T07:16:16;9.39;97.40
67157;SHT31;54086;50.126;8.710;2023-11-21T07:18:41;9.40;97.49
67157;SHT31;54086;50.126;8.710;2023-11-21T07:21:07;9.43;97.52
67157;SHT31;54086;50.126;8.710;2023-11-21T07:23:33;9.49;97.34
67157;SHT31;54086;50.126;8.710;2023-11-21T07:25:59;9.44;97.12
67157;SHT31;54086;50.126;8.710;2023-11-21T07:28:24;9.29;97.47
67157;SHT31;54086;50.126;8.710;2023-11-21T07:30:51;9.16;97.51
67157;SHT31;54086;50.126;8.710;2023-11-21T07:33:16;9.25;97.66
67157;SHT31;54086;50.126;8.710;2023-11-21T07:35:42;9.20;97.68
67157;SHT31;54086;50.126;8.710;2023-11-21T07:38:08;9.22;97.78
67157;SHT31;54086;50.126;8.710;2023-11-21T07:40:34;9.28;97.69
67157;SHT31;54086;50.126;8.710;2023-11-21T07:42:59;9.33;97.60
67157;SHT31;54086;50.126;8.710;2023-11-21T07:45:25;9.32;97.21
67157;SHT31;54086;50.126;8.710;2023-11-21T07:47:53;9.36;97.67
67157;SHT31;54086;50.126;8.710;2023-11-21T07:50:19;9.38;97.58
67157;SHT31;54086;50.126;8.710;2023-11-21T07:52:45;9.35;97.44
67157;SHT31;54086;50.126;8.710;2023-11-21T07:55:11;9.44;97.23
67157;SHT31;54086;50.126;8.710;2023-11-21T07:57:37;9.33;97.32
67157;SHT31;54086;50.126;8.710;2023-11-21T08:00:04;9.29;97.36
67157;SHT31;54086;50.126;8.710;2023-11-21T08:02:31;9.26;97.09
67157;SHT31;54086;50.126;8.710;2023-11-21T08:04:57;9.32;97.35
67157;SHT31;54086;50.126;8.710;2023-11-21T08:07:22;9.25;97.29
67157;SHT31;54086;50.126;8.710;2023-11-21T08:09:48;9.30;96.79
67157;SHT31;54086;50.126;8.710;2023-11-21T08:12:15;9.30;96.92
67157;SHT31;54086;50.126;8.710;2023-11-21T08:14:40;9.46;97.08
67157;SHT31;54086;50.126;8.710;2023-11-21T08:17:06;9.49;97.09
67157;SHT31;54086;50.126;8.710;2023-11-21T08:19:31;9.50;96.66
67157;SHT31;54086;50.126;8.710;2023-11-21T08:21:58;9.50;96.96
67157;SHT31;54086;50.126;8.710;2023-11-21T08:24:24;9.56;96.75
67157;SHT31;54086;50.126;8.710;2023-11-21T08:26:50;9.54;96.50
67157;SHT31;54086;50.126;8.710;2023-11-21T08:29:17;9.60;96.29
67157;SHT31;54086;50.126;8.710;2023-11-21T08:31:43;9.63;96.28
67157;SHT31;54086;50.126;8.710;2023-11-21T08:34:12;9.63;96.16
67157;SHT31;54086;50.126;8.710;2023-11-21T08:36:44;9.54;96.05
67157;SHT31;54086;50.126;8.710;2023-11-21T08:39:10;9.60;96.08
67157;SHT31;54086;50.126;8.710;2023-11-21T08:41:36;9.64;96.34
67157;SHT31;54086;50.126;8.710;2023-11-21T08:44:02;9.63;96.30
67157;SHT31;54086;50.126;8.710;2023-11-21T08:46:32;9.63;95.72
67157;SHT31;54086;50.126;8.710;2023-11-21T08:49:00;9.70;96.01
67157;SHT31;54086;50.126;8.710;2023-11-21T08:51:25;9.73;95.98
67157;SHT31;54086;50.126;8.710;2023-11-21T08:53:51;9.81;95.94
67157;SHT31;54086;50.126;8.710;2023-11-21T08:56:16;9.86;95.75
67157;SHT31;54086;50.126;8.710;2023-11-21T08:58:43;9.88;95.34
67157;SHT31;54086;50.126;8.710;2023-11-21T09:01:09;9.93;95.37
67157;SHT31;54086;50.126;8.710;2023-11-21T09:03:34;9.94;95.24
67157;SHT31;54086;50.126;8.710;2023-11-21T09:06:00;9.93;95.46
67157;SHT31;54086;50.126;8.710;2023-11-21T09:08:26;9.97;94.97
67157;SHT31;54086;50.126;8.710;2023-11-21T09:10:54;9.87;94.90
67157;SHT31;54086;50.126;8.710;2023-11-21T09:13:19;9.90;95.48
67157;SHT31;54086;50.126;8.710;2023-11-21T09:15:44;9.86;94.77
67157;SHT31;54086;50.126;8.710;2023-11-21T09:18:14;9.88;94.90
67157;SHT31;54086;50.126;8.710;2023-11-21T09:20:41;9.87;94.88
67157;SHT31;54086;50.126;8.710;2023-11-21T09:23:08;9.93;94.52
67157;SHT31;54086;50.126;8.710;2023-11-21T09:25:33;10.02;94.76
67157;SHT31;54086;50.126;8.710;2023-11-21T09:27:58;9.94;94.19
67157;SHT31;54086;50.126;8.710;2023-11-21T09:30:25;10.04;94.28
67157;SHT31;54086;50.126;8.710;2023-11-21T09:32:51;9.93;94.07
67157;SHT31;54086;50.126;8.710;2023-11-21T09:35:17;9.98;94.06
67157;SHT31;54086;50.126;8.710;2023-11-21T09:37:45;9.88;94.18
67157;SHT31;54086;50.126;8.710;2023-11-21T09:40:11;9.74;93.91
67157;SHT31;54086;50.126;8.710;2023-11-21T09:43:05;9.60;94.61
67157;SHT31;54086;50.126;8.710;2023-11-21T09:45:35;9.59;94.86
67157;SHT31;54086;50.126;8.710;2023-11-21T09:48:01;9.53;95.02
67157;SHT31;54086;50.126;8.710;2023-11-21T09:50:27;9.50;95.06
67157;SHT31;54086;50.126;8.710;2023-11-21T09:55:36;9.49;95.15
67157;SHT31;54086;50.126;8.710;2023-11-21T09:58:04;9.40;94.95
67157;SHT31;54086;50.126;8.710;2023-11-21T10:00:33;9.44;94.92
67157;SHT31;54086;50.126;8.710;2023-11-21T10:02:58;9.46;95.15
67157;SHT31;54086;50.126;8.710;2023-11-21T10:05:24;9.35;95.02
67157;SHT31;54086;50.126;8.710;2023-11-21T10:07:50;9.47;95.09
67157;SHT31;54086;50.126;8.710;2023-11-21T10:10:18;9.63;94.68
67157;SHT31;54086;50.126;8.710;2023-11-21T10:12:49;9.76;94.78
67157;SHT31;54086;50.126;8.710;2023-11-21T10:15:23;9.91;94.28
67157;SHT31;54086;50.126;8.710;2023-11-21T10:17:50;10.02;93.48
67157;SHT31;54086;50.126;8.710;2023-11-21T10:20:22;10.18;92.78
67157;SHT31;54086;50.126;8.710;2023-11-21T10:22:49;10.31;93.12
67157;SHT31;54086;50.126;8.710;2023-11-21T10:25:15;10.39;92.23
67157;SHT31;54086;50.126;8.710;2023-11-21T10:27:41;10.44;91.78
67157;SHT31;54086;50.126;8.710;2023-11-21T10:30:07;10.42;91.39
67157;SHT31;54086;50.126;8.710;2023-11-21T10:32:40;10.55;91.76
67157;SHT31;54086;50.126;8.710;2023-11-21T10:35:07;10.69;91.69
67157;SHT31;54086;50.126;8.710;2023-11-21T10:37:39;10.83;91.39
67157;SHT31;54086;50.126;8.710;2023-11-21T10:40:09;10.89;89.61
67157;SHT31;54086;50.126;8.710;2023-11-21T10:42:40;10.80;89.87
67157;SHT31;54086;50.126;8.710;2023-11-21T10:45:07;10.81;89.79
67157;SHT31;54086;50.126;8.710;2023-11-21T10:47:40;10.84;89.64
67157;SHT31;54086;50.126;8.710;2023-11-21T10:50:07;10.86;89.75
67157;SHT31;54086;50.126;8.710;2023-11-21T10:52:39;10.86;89.23
67157;SHT31;54086;50.126;8.710;2023-11-21T10:55:18;10.90;89.34
67157;SHT31;54086;50.126;8.710;2023-11-21T10:57:52;10.96;88.89
67157;SHT31;54086;50.126;8.710;2023-11-21T11:00:18;11.06;89.18
67157;SHT31;54086;50.126;8.710;2023-11-21T11:02:51;11.27;88.59
67157;SHT31;54086;50.126;8.710;2023-11-21T11:05:19;11.42;87.66
67157;SHT31;54086;50.126;8.710;2023-11-21T11:07:48;11.68;86.59
67157;SHT31;54086;50.126;8.710;2023-11-21T11:10:18;11.82;86.06
67157;SHT31;54086;50.126;8.710;2023-11-21T11:12:47;11.95;86.02
67157;SHT31;54086;50.126;8.710;2023-11-21T11:15:12;12.12;85.37
67157;SHT31;54086;50.126;8.710;2023-11-21T11:17:39;12.06;86.03
67157;SHT31;54086;50.126;8.710;2023-11-21T11:20:06;12.10;85.82
67157;SHT31;54086;50.126;8.710;2023-11-21T11:22:44;12.19;85.25
67157;SHT31;54086;50.126;8.710;2023-11-21T11:28:29;12.10;84.62
67157;SHT31;54086;50.126;8.710;2023-11-21T11:31:13;12.05;84.95
67157;SHT31;54086;50.126;8.710;2023-11-21T11:33:48;11.93;85.12
67157;SHT31;54086;50.126;8.710;2023-11-21T11:38:46;12.13;84.84
67157;SHT31;54086;50.126;8.710;2023-11-21T11:41:11;12.17;84.72
67157;SHT31;54086;50.126;8.710;2023-11-21T11:43:38;12.20;84.82
67157;SHT31;54086;50.126;8.710;2023-11-21T11:46:10;12.15;85.45
67157;SHT31;54086;50.126;8.710;2023-11-21T11:48:39;12.17;85.36
67157;SHT31;54086;50.126;8.710;2023-11-21T11:51:14;12.02;85.41
67157;SHT31;54086;50.126;8.710;2023-11-21T11:53:43;11.88;84.82
67157;SHT31;54086;50.126;8.710;2023-11-21T11:56:28;11.98;85.16
67157;SHT31;54086;50.126;8.710;2023-11-21T11:58:58;11.98;84.66
67157;SHT31;54086;50.126;8.710;2023-11-21T12:01:26;11.85;85.30
67157;SHT31;54086;50.126;8.710;2023-11-21T12:06:36;12.12;85.03
67157;SHT31;54086;50.126;8.710;2023-11-21T12:09:02;12.23;84.20
67157;SHT31;54086;50.126;8.710;2023-11-21T12:11:31;12.34;83.87
67157;SHT31;54086;50.126;8.710;2023-11-21T12:13:58;12.26;84.21
67157;SHT31;54086;50.126;8.710;2023-11-21T12:16:25;12.37;83.87
67157;SHT31;54086;50.126;8.710;2023-11-21T12:18:53;12.22;84.14
67157;SHT31;54086;50.126;8.710;2023-11-21T12:21:19;12.13;84.65
67157;SHT31;54086;50.126;8.710;2023-11-21T12:23:45;11.77;85.79
67157;SHT31;54086;50.126;8.710;2023-11-21T12:26:13;11.69;86.10
67157;SHT31;54086;50.126;8.710;2023-11-21T12:28:38;11.64;86.66
67157;SHT31;54086;50.126;8.710;2023-11-21T12:31:04;11.57;86.54
67157;SHT31;54086;50.126;8.710;2023-11-21T12:33:35;11.26;86.57
67157;SHT31;54086;50.126;8.710;2023-11-21T12:36:00;11.26;86.88
67157;SHT31;54086;50.126;8.710;2023-11-21T12:38:34;11.35;86.55
67157;SHT31;54086;50.126;8.710;2023-11-21T12:41:00;11.28;86.50
67157;SHT31;54086;50.126;8.710;2023-11-21T12:43:25;11.23;86.57
67157;SHT31;54086;50.126;8.710;2023-11-21T12:46:07;11.16;86.95
67157;SHT31;54086;50.126;8.710;2023-11-21T12:48:32;11.14;87.08
67157;SHT31;54086;50.126;8.710;2023-11-21T12:50:58;11.24;86.85
67157;SHT31;54086;50.126;8.710;2023-11-21T12:53:25;11.32;86.97
67157;SHT31;54086;50.126;8.710;2023-11-21T12:55:51;11.34;87.29
67157;SHT31;54086;50.126;8.710;2023-11-21T12:58:17;11.54;87.01
67157;SHT31;54086;50.126;8.710;2023-11-21T13:00:47;11.68;86.85
67157;SHT31;54086;50.126;8.710;2023-11-21T13:03:14;11.64;86.94
67157;SHT31;54086;50.126;8.710;2023-11-21T13:05:47;11.77;86.76
67157;SHT31;54086;50.126;8.710;2023-11-21T13:08:16;11.74;87.04
67157;SHT31;54086;50.126;8.710;2023-11-21T13:10:46;11.83;86.67
67157;SHT31;54086;50.126;8.710;2023-11-21T13:13:13;11.71;86.72
67157;SHT31;54086;50.126;8.710;2023-11-21T13:15:51;11.64;87.18
67157;SHT31;54086;50.126;8.710;2023-11-21T13:18:17;11.77;87.29
67157;SHT31;54086;50.126;8.710;2023-11-21T13:20:43;11.75;86.23
67157;SHT31;54086;50.126;8.710;2023-11-21T13:23:10;11.62;86.13
67157;SHT31;54086;50.126;8.710;2023-11-21T13:25:38;11.62;86.30
67157;SHT31;54086;50.126;8.710;2023-11-21T13:28:06;11.75;86.06
67157;SHT31;54086;50.126;8.710;2023-11-21T13:30:32;11.77;85.82
67157;SHT31;54086;50.126;8.710;2023-11-21T13:33:01;11.83;85.83
67157;SHT31;54086;50.126;8.710;2023-11-21T13:35:31;11.78;85.94
67157;SHT31;54086;50.126;8.710;2023-11-21T13:38:12;11.79;85.61
67157;SHT31;54086;50.126;8.710;2023-11-21T13:40:39;11.75;86.38
67157;SHT31;54086;50.126;8.710;2023-11-21T13:43:12;11.78;86.31
67157;SHT31;54086;50.126;8.710;2023-11-21T13:45:41;11.65;86.89
67157;SHT31;54086;50.126;8.710;2023-11-21T13:48:07;11.64;86.64
67157;SHT31;54086;50.126;8.710;2023-11-21T13:50:45;11.64;86.94
67157;SHT31;54086;50.126;8.710;2023-11-21T13:53:20;11.64;86.97
67157;SHT31;54086;50.126;8.710;2023-11-21T13:55:53;11.58;87.21
67157;SHT31;54086;50.126;8.710;2023-11-21T13:58:25;11.44;87.57
67157;SHT31;54086;50.126;8.710;2023-11-21T14:01:06;11.30;89.35
67157;SHT31;54086;50.126;8.710;2023-11-21T14:03:38;11.24;89.54
67157;SHT31;54086;50.126;8.710;2023-11-21T14:06:15;11.27;90.55
67157;SHT31;54086;50.126;8.710;2023-11-21T14:08:48;11.32;90.61
67157;SHT31;54086;50.126;8.710;2023-11-21T14:11:13;11.28;91.07
67157;SHT31;54086;50.126;8.710;2023-11-21T14:13:43;11.28;91.29
67157;SHT31;54086;50.126;8.710;2023-11-21T14:16:11;11.28;91.08
67157;SHT31;54086;50.126;8.710;2023-11-21T14:18:39;11.27;91.23
67157;SHT31;54086;50.126;8.710;2023-11-21T14:21:16;11.21;91.46
67157;SHT31;54086;50.126;8.710;2023-11-21T14:23:42;10.95;91.35
67157;SHT31;54086;50.126;8.710;2023-11-21T14:26:08;10.89;91.67
67157;SHT31;54086;50.126;8.710;2023-11-21T14:28:33;10.86;92.24
67157;SHT31;54086;50.126;8.710;2023-11-21T14:31:00;10.89;92.68
67157;SHT31;54086;50.126;8.710;2023-11-21T14:33:27;10.75;93.02
67157;SHT31;54086;50.126;8.710;2023-11-21T14:35:52;10.70;92.30
67157;SHT31;54086;50.126;8.710;2023-11-21T14:38:18;10.75;92.21
67157;SHT31;54086;50.126;8.710;2023-11-21T14:40:43;10.76;92.39
67157;SHT31;54086;50.126;8.710;2023-11-21T14:43:09;10.77;92.46
67157;SHT31;54086;50.126;8.710;2023-11-21T14:45:35;10.84;92.16
67157;SHT31;54086;50.126;8.710;2023-11-21T14:48:01;10.96;92.28
67157;SHT31;54086;50.126;8.710;2023-11-21T14:50:42;10.89;92.40
67157;SHT31;54086;50.126;8.710;2023-11-21T14:53:14;10.89;92.83
67157;SHT31;54086;50.126;8.710;2023-11-21T14:55:40;10.86;92.56
67157;SHT31;54086;50.126;8.710;2023-11-21T14:58:08;10.80;92.37
67157;SHT31;54086;50.126;8.710;2023-11-21T15:00:38;10.73;92.66
67157;SHT31;54086;50.126;8.710;2023-11-21T15:03:11;10.62;92.87
67157;SHT31;54086;50.126;8.710;2023-11-21T15:05:51;10.48;93.78
67157;SHT31;54086;50.126;8.710;2023-11-21T15:08:19;10.41;93.97
67157;SHT31;54086;50.126;8.710;2023-11-21T15:10:52;10.44;94.29
67157;SHT31;54086;50.126;8.710;2023-11-21T15:13:21;10.49;94.56
67157;SHT31;54086;50.126;8.710;2023-11-21T15:15:52;10.39;94.50
67157;SHT31;54086;50.126;8.710;2023-11-21T15:18:20;10.42;94.83
67157;SHT31;54086;50.126;8.710;2023-11-21T15:20:45;10.46;94.81
67157;SHT31;54086;50.126;8.710;2023-11-21T15:23:11;10.42;94.88
67157;SHT31;54086;50.126;8.710;2023-11-21T15:25:38;10.45;95.08
67157;SHT31;54086;50.126;8.710;2023-11-21T15:28:04;10.44;95.07
67157;SHT31;54086;50.126;8.710;2023-11-21T15:30:30;10.45;95.31
67157;SHT31;54086;50.126;8.710;2023-11-21T15:32:59;10.39;95.44
67157;SHT31;54086;50.126;8.710;2023-11-21T15:35:25;10.48;95.76
67157;SHT31;54086;50.126;8.710;2023-11-21T15:37:52;10.44;94.96
67157;SHT31;54086;50.126;8.710;2023-11-21T15:40:18;10.50;95.05
67157;SHT31;54086;50.126;8.710;2023-11-21T15:42:43;10.46;95.17
67157;SHT31;54086;50.126;8.710;2023-11-21T15:45:10;10.45;95.45
67157;SHT31;54086;50.126;8.710;2023-11-21T15:47:35;10.39;95.76
67157;SHT31;54086;50.126;8.710;2023-11-21T15:50:01;10.46;95.66